Time;durP1;ratioP1;P1;durP2;ratioP2;P2;SDS_P1;SDS_P2;PMS_P1;PMS_P2;Temp;Humidity;BMP_temperature;BMP_pressure;BME280_temperature;BME280_humidity;BME280_pressure;Samples;Min_cycle;Max_cycle;Signal;HPM_P1;HPM_P2
2021/05/23 00:00:38;;;;;;;5.28;4.38;;;8.90;99.90;;;;;;5006724;28;20049;-71
2021/05/23 00:03:11;;;;;;;11.40;6.00;;;8.90;99.90;;;;;;4996218;28;20072;-72
2021/05/23 00:05:40;;;;;;;7.97;4.63;;;8.90;99.90;;;;;;4985146;28;20062;-72
2021/05/23 00:08:11;;;;;;;10.52;5.43;;;8.90;99.90;;;;;;4983144;28;20144;-72
2021/05/23 00:10:40;;;;;;;8.27;4.93;;;8.90;99.90;;;;;;5011072;28;20068;-73
2021/05/23 00:13:09;;;;;;;8.85;5.43;;;8.90;99.90;;;;;;5044721;28;20493;-72
2021/05/23 00:15:37;;;;;;;8.98;4.55;;;8.90;99.90;;;;;;5043999;28;20132;-72
2021/05/23 00:18:06;;;;;;;4.80;4.38;;;8.90;99.90;;;;;;5019005;28;20048;-72
2021/05/23 00:20:33;;;;;;;7.43;4.70;;;9.00;99.90;;;;;;5007104;28;20132;-72
2021/05/23 00:23:01;;;;;;;7.03;4.20;;;9.00;99.90;;;;;;5005689;28;20167;-72
2021/05/23 00:25:28;;;;;;;6.05;4.50;;;8.90;99.90;;;;;;5010549;28;20160;-72
2021/05/23 00:27:55;;;;;;;7.90;4.80;;;9.00;99.90;;;;;;5024034;28;20053;-73
2021/05/23 00:30:22;;;;;;;5.72;4.32;;;9.00;99.90;;;;;;5004175;28;20277;-73
2021/05/23 00:32:50;;;;;;;6.43;4.35;;;9.00;99.90;;;;;;5015162;28;20137;-72
2021/05/23 00:35:17;;;;;;;12.77;4.88;;;9.00;99.90;;;;;;5001705;28;20056;-72
2021/05/23 00:37:44;;;;;;;5.68;4.75;;;9.00;99.90;;;;;;5036693;28;20085;-72
2021/05/23 00:40:11;;;;;;;5.72;4.70;;;9.00;99.90;;;;;;5039508;28;20395;-72
2021/05/23 00:42:38;;;;;;;6.43;3.97;;;9.00;99.90;;;;;;5026476;28;20069;-72
2021/05/23 00:45:07;;;;;;;7.80;4.57;;;9.00;99.90;;;;;;4991740;28;20068;-72
2021/05/23 00:47:35;;;;;;;6.63;4.65;;;9.00;99.90;;;;;;5024453;28;20060;-72
2021/05/23 00:50:04;;;;;;;7.55;4.05;;;9.00;99.90;;;;;;4992416;28;20250;-72
2021/05/23 00:52:31;;;;;;;8.38;4.47;;;9.00;99.90;;;;;;5011702;28;20045;-72
2021/05/23 00:54:59;;;;;;;7.82;4.82;;;9.00;99.90;;;;;;5027452;28;20494;-71
2021/05/23 00:57:26;;;;;;;5.40;4.35;;;8.90;99.90;;;;;;5019798;28;20524;-71
2021/05/23 00:59:53;;;;;;;8.60;4.22;;;8.90;99.90;;;;;;5015802;28;20083;-71
2021/05/23 01:02:43;;;;;;;8.38;4.05;;;8.90;99.90;;;;;;5004549;28;20055;-74
2021/05/23 01:05:14;;;;;;;7.60;4.15;;;9.00;99.90;;;;;;5018616;28;20115;-72
2021/05/23 01:07:42;;;;;;;8.10;4.65;;;9.00;99.90;;;;;;5024673;28;20053;-72
2021/05/23 01:10:13;;;;;;;5.45;4.38;;;9.00;99.90;;;;;;5012559;28;20376;-71
2021/05/23 01:12:53;;;;;;;7.13;4.45;;;9.00;99.90;;;;;;5007590;28;20112;-72
2021/05/23 01:15:29;;;;;;;5.60;3.85;;;9.00;99.90;;;;;;5023311;28;20119;-72
2021/05/23 01:17:59;;;;;;;5.47;3.92;;;9.00;99.90;;;;;;4991637;28;20578;-72
2021/05/23 01:20:57;;;;;;;8.07;5.00;;;9.10;99.90;;;;;;5040812;28;20037;-72
2021/05/23 01:23:30;;;;;;;7.75;4.55;;;9.00;99.90;;;;;;5015116;28;20163;-72
2021/05/23 01:26:06;;;;;;;6.10;4.05;;;9.00;99.90;;;;;;5042712;28;20048;-72
2021/05/23 01:28:58;;;;;;;4.30;3.90;;;9.00;99.90;;;;;;5044056;28;20080;-72
2021/05/23 01:31:29;;;;;;;8.05;4.88;;;9.00;99.90;;;;;;4996534;28;20069;-72
2021/05/23 01:33:59;;;;;;;6.57;4.18;;;9.00;99.90;;;;;;5020345;28;20505;-72
2021/05/23 01:36:33;;;;;;;6.07;4.00;;;9.00;99.90;;;;;;5009625;28;20469;-72
2021/05/23 01:39:03;;;;;;;8.85;4.60;;;8.90;99.90;;;;;;4990010;28;20576;-72
2021/05/23 01:41:30;;;;;;;7.18;4.15;;;9.00;99.90;;;;;;5006575;28;20518;-71
2021/05/23 01:43:58;;;;;;;10.93;4.60;;;9.00;99.90;;;;;;5037322;28;20049;-71
2021/05/23 01:46:27;;;;;;;5.93;4.50;;;9.00;99.90;;;;;;5011440;28;20355;-72
2021/05/23 01:48:54;;;;;;;7.53;4.60;;;9.00;99.90;;;;;;5006412;28;20055;-72
2021/05/23 01:51:21;;;;;;;9.10;4.78;;;9.00;99.90;;;;;;4988591;28;20052;-71
2021/05/23 01:53:47;;;;;;;6.65;4.93;;;9.00;99.90;;;;;;5023940;28;20053;-71
2021/05/23 01:56:14;;;;;;;6.75;4.53;;;8.90;99.90;;;;;;5005861;28;20060;-71
2021/05/23 01:58:41;;;;;;;10.43;5.38;;;8.90;99.90;;;;;;5006203;28;20089;-71
2021/05/23 02:01:08;;;;;;;9.05;5.70;;;8.90;99.90;;;;;;5002155;28;20058;-74
2021/05/23 02:03:35;;;;;;;9.13;4.80;;;8.90;99.90;;;;;;4987483;28;20218;-72
2021/05/23 02:06:04;;;;;;;7.93;5.00;;;8.90;99.90;;;;;;4988106;28;20484;-72
2021/05/23 02:08:32;;;;;;;9.40;6.10;;;8.90;99.90;;;;;;5024393;28;20057;-72
2021/05/23 02:11:07;;;;;;;7.70;5.47;;;8.90;99.90;;;;;;5018400;28;20411;-71
2021/05/23 02:13:38;;;;;;;6.93;5.13;;;8.90;99.90;;;;;;5019495;28;20058;-72
2021/05/23 02:16:07;;;;;;;6.32;5.03;;;8.90;99.90;;;;;;5005612;28;20041;-72
2021/05/23 02:18:35;;;;;;;11.40;5.30;;;8.90;99.90;;;;;;5000634;28;20593;-72
2021/05/23 02:21:05;;;;;;;10.82;4.75;;;8.90;99.90;;;;;;5028193;28;20803;-73
2021/05/23 02:23:32;;;;;;;7.90;5.07;;;8.90;99.90;;;;;;5022406;28;20110;-73
2021/05/23 02:25:59;;;;;;;11.52;5.00;;;8.90;99.90;;;;;;5016667;28;20106;-73
2021/05/23 02:28:26;;;;;;;9.55;5.40;;;8.90;99.90;;;;;;5006013;28;20049;-73
2021/05/23 02:30:56;;;;;;;5.32;4.82;;;8.90;99.90;;;;;;4973353;28;20354;-73
2021/05/23 02:33:24;;;;;;;7.80;4.88;;;8.90;99.90;;;;;;4980843;28;20045;-72
2021/05/23 02:35:54;;;;;;;5.13;4.60;;;8.90;99.90;;;;;;4986071;28;20129;-73
2021/05/23 02:38:22;;;;;;;8.20;5.22;;;8.90;99.90;;;;;;5002835;28;20049;-72
2021/05/23 02:40:50;;;;;;;7.70;4.68;;;8.90;99.90;;;;;;5007233;28;20034;-72
2021/05/23 02:43:18;;;;;;;10.07;5.85;;;8.90;99.90;;;;;;5006323;28;20055;-73
2021/05/23 02:45:45;;;;;;;6.53;4.47;;;8.80;99.90;;;;;;5021349;28;20532;-73
2021/05/23 02:48:13;;;;;;;6.28;4.68;;;8.80;99.90;;;;;;5010422;28;20081;-73
2021/05/23 02:50:44;;;;;;;10.20;5.03;;;8.80;99.90;;;;;;5014032;28;20084;-73
2021/05/23 02:53:11;;;;;;;7.45;5.18;;;8.80;99.90;;;;;;5017104;28;20064;-73
2021/05/23 02:55:41;;;;;;;8.35;5.30;;;8.80;99.90;;;;;;5026538;28;20045;-73
2021/05/23 02:58:08;;;;;;;9.75;5.38;;;8.80;99.90;;;;;;4996176;28;20080;-73
2021/05/23 03:00:35;;;;;;;6.35;4.65;;;8.80;99.90;;;;;;5040101;28;20369;-73
2021/05/23 03:03:02;;;;;;;8.70;5.15;;;8.80;99.90;;;;;;5006215;28;20480;-73
2021/05/23 03:05:29;;;;;;;7.40;5.18;;;8.80;99.90;;;;;;4995318;28;20072;-73
2021/05/23 03:07:57;;;;;;;7.80;5.63;;;8.80;99.90;;;;;;5008751;28;20053;-73
2021/05/23 03:10:33;;;;;;;8.85;5.03;;;8.70;99.90;;;;;;4992564;28;20049;-73
2021/05/23 03:13:01;;;;;;;6.65;5.28;;;8.70;99.90;;;;;;5000275;28;20053;-73
2021/05/23 03:15:29;;;;;;;6.07;5.15;;;8.70;99.90;;;;;;5038897;28;20081;-74
2021/05/23 03:17:56;;;;;;;5.72;5.10;;;8.70;99.90;;;;;;5028957;28;20059;-74
2021/05/23 03:20:25;;;;;;;13.48;7.18;;;8.70;99.90;;;;;;5041932;28;20049;-74
2021/05/23 03:22:55;;;;;;;8.93;6.03;;;8.70;99.90;;;;;;5022863;28;20041;-73
2021/05/23 03:25:22;;;;;;;7.30;5.10;;;8.80;99.90;;;;;;5014445;28;20322;-73
2021/05/23 03:27:50;;;;;;;6.63;5.22;;;8.80;99.90;;;;;;5022292;28;20034;-71
2021/05/23 03:30:24;;;;;;;6.75;4.88;;;8.70;99.90;;;;;;5025413;28;20049;-72
2021/05/23 03:32:51;;;;;;;8.20;5.10;;;8.70;99.90;;;;;;5000319;28;20045;-71
2021/05/23 03:35:18;;;;;;;6.13;4.82;;;8.70;99.90;;;;;;4987956;28;20048;-72
2021/05/23 03:37:45;;;;;;;6.32;5.65;;;8.80;99.90;;;;;;5024865;28;20045;-71
2021/05/23 03:40:15;;;;;;;8.27;5.22;;;8.70;99.90;;;;;;5025607;28;20068;-72
2021/05/23 03:42:47;;;;;;;6.93;5.60;;;8.60;99.90;;;;;;5026745;28;20061;-72
2021/05/23 03:45:21;;;;;;;9.13;6.35;;;8.50;99.90;;;;;;5009449;28;20053;-73
2021/05/23 03:47:48;;;;;;;12.23;7.53;;;8.40;99.90;;;;;;4980058;28;20137;-73
2021/05/23 03:50:19;;;;;;;15.77;8.57;;;8.40;99.90;;;;;;5022211;28;20059;-73
2021/05/23 03:52:48;;;;;;;14.07;9.25;;;8.40;99.90;;;;;;5026818;28;20136;-73
2021/05/23 03:55:16;;;;;;;16.65;9.93;;;8.40;99.90;;;;;;5022384;28;20065;-72
2021/05/23 03:57:43;;;;;;;13.63;9.57;;;8.40;99.90;;;;;;5021810;28;20054;-72
2021/05/23 04:00:11;;;;;;;16.52;10.98;;;8.30;99.90;;;;;;4970366;28;20060;-71
2021/05/23 04:02:38;;;;;;;17.88;13.02;;;8.30;99.90;;;;;;5021789;28;20049;-71
2021/05/23 04:05:06;;;;;;;25.50;13.45;;;8.30;99.90;;;;;;5005692;28;20699;-73
2021/05/23 04:07:33;;;;;;;21.00;12.73;;;8.30;99.90;;;;;;5020585;28;20564;-71
2021/05/23 04:10:02;;;;;;;20.13;13.10;;;8.30;99.90;;;;;;5005541;28;20173;-71
2021/05/23 04:12:33;;;;;;;21.52;13.38;;;8.30;99.90;;;;;;4994635;28;20312;-71
2021/05/23 04:15:00;;;;;;;24.95;14.45;;;8.30;99.90;;;;;;5015955;28;20311;-73
2021/05/23 04:17:28;;;;;;;21.45;13.07;;;8.30;99.90;;;;;;5024312;28;20060;-72
2021/05/23 04:19:56;;;;;;;19.85;12.82;;;8.30;99.90;;;;;;5018567;28;20049;-73
2021/05/23 04:22:23;;;;;;;19.67;12.57;;;8.30;99.90;;;;;;5018280;28;20140;-73
2021/05/23 04:24:49;;;;;;;18.40;13.15;;;8.30;99.90;;;;;;5025235;28;20081;-72
2021/05/23 04:27:16;;;;;;;20.80;13.02;;;8.30;99.90;;;;;;5020845;28;20148;-72
2021/05/23 04:29:43;;;;;;;26.55;14.55;;;8.40;99.90;;;;;;5022906;28;20136;-73
2021/05/23 04:32:10;;;;;;;22.83;14.77;;;8.30;99.90;;;;;;5021492;28;20698;-72
2021/05/23 04:34:38;;;;;;;22.88;15.25;;;8.40;99.90;;;;;;5009631;28;20049;-71
2021/05/23 04:37:05;;;;;;;29.05;15.52;;;8.40;99.90;;;;;;5003451;28;20136;-71
2021/05/23 04:39:32;;;;;;;27.98;16.48;;;8.30;99.90;;;;;;5002372;28;20050;-70
2021/05/23 04:42:00;;;;;;;25.95;15.55;;;8.20;99.90;;;;;;4981895;28;20051;-72
2021/05/23 04:44:47;;;;;;;28.67;16.95;;;8.20;99.90;;;;;;5041010;28;20045;-71
2021/05/23 04:47:13;;;;;;;26.17;17.63;;;8.20;99.90;;;;;;5005990;28;20046;-71
2021/05/23 04:49:40;;;;;;;25.60;15.50;;;8.20;99.90;;;;;;5024478;28;20068;-70
2021/05/23 04:52:09;;;;;;;26.05;17.00;;;8.20;99.90;;;;;;5017465;28;20043;-71
2021/05/23 04:54:36;;;;;;;30.83;17.05;;;8.20;99.90;;;;;;5009451;28;20405;-71
2021/05/23 04:57:04;;;;;;;25.05;16.35;;;8.20;99.90;;;;;;5022601;28;20615;-72
2021/05/23 04:59:32;;;;;;;33.05;17.92;;;8.20;99.90;;;;;;5022727;28;20053;-72
2021/05/23 05:01:59;;;;;;;28.50;15.93;;;8.20;99.90;;;;;;5022439;28;20041;-71
2021/05/23 05:04:26;;;;;;;22.42;16.02;;;8.20;99.90;;;;;;4985362;28;20260;-72
2021/05/23 05:06:52;;;;;;;25.08;16.40;;;8.30;99.90;;;;;;5004507;28;20141;-71
2021/05/23 05:09:19;;;;;;;30.70;17.25;;;8.30;99.90;;;;;;4973027;28;20073;-72
2021/05/23 05:11:46;;;;;;;27.23;17.17;;;8.30;99.90;;;;;;5018886;28;20037;-72
2021/05/23 05:14:13;;;;;;;28.05;17.50;;;8.40;99.90;;;;;;5005766;28;20084;-73
2021/05/23 05:16:40;;;;;;;26.85;17.45;;;8.30;99.90;;;;;;5021780;28;20049;-72
2021/05/23 05:19:08;;;;;;;28.25;16.92;;;8.30;99.90;;;;;;4989119;28;20162;-72
2021/05/23 05:21:36;;;;;;;24.80;17.05;;;8.40;99.90;;;;;;5019144;28;20516;-72
2021/05/23 05:24:04;;;;;;;29.65;17.88;;;8.40;99.90;;;;;;4973301;28;20041;-72
2021/05/23 05:26:31;;;;;;;23.90;16.60;;;8.40;99.90;;;;;;5023581;28;20589;-72
2021/05/23 05:28:58;;;;;;;27.38;18.30;;;8.40;99.90;;;;;;4990145;28;20102;-73
2021/05/23 05:31:25;;;;;;;31.35;18.25;;;8.40;99.90;;;;;;4997417;28;20514;-72
2021/05/23 05:33:52;;;;;;;28.88;18.80;;;8.40;99.90;;;;;;4979572;28;20149;-71
2021/05/23 05:36:19;;;;;;;29.80;17.35;;;8.50;99.90;;;;;;5022258;28;20049;-72
2021/05/23 05:38:48;;;;;;;27.02;18.55;;;8.50;99.90;;;;;;5005064;28;20757;-72
2021/05/23 05:41:16;;;;;;;29.67;18.35;;;8.40;99.90;;;;;;5023646;28;20081;-72
2021/05/23 05:43:43;;;;;;;29.05;17.63;;;8.40;99.90;;;;;;5030919;28;20539;-72
2021/05/23 05:46:10;;;;;;;28.80;18.45;;;8.40;99.90;;;;;;5023032;28;20454;-72
2021/05/23 05:48:37;;;;;;;32.13;19.73;;;8.50;99.90;;;;;;5020854;28;20420;-72
2021/05/23 05:51:04;;;;;;;26.33;17.52;;;8.50;99.90;;;;;;5020563;28;20080;-73
2021/05/23 05:53:31;;;;;;;28.05;17.00;;;8.60;99.90;;;;;;5022865;28;20060;-72
2021/05/23 05:55:58;;;;;;;26.00;17.70;;;8.50;99.90;;;;;;5040494;28;20048;-72
2021/05/23 05:58:25;;;;;;;27.13;18.20;;;8.50;99.90;;;;;;5024609;28;20537;-72
2021/05/23 06:00:51;;;;;;;30.30;16.70;;;8.50;99.90;;;;;;5001834;28;20045;-72
2021/05/23 06:03:19;;;;;;;26.90;17.80;;;8.50;99.90;;;;;;4989070;28;20042;-72
2021/05/23 06:05:45;;;;;;;23.70;16.27;;;8.50;99.90;;;;;;4968113;28;20141;-72
2021/05/23 06:08:12;;;;;;;29.25;16.08;;;8.50;99.90;;;;;;5002135;28;20152;-71
2021/05/23 06:10:40;;;;;;;22.45;15.90;;;8.50;99.90;;;;;;4985372;28;20077;-72
2021/05/23 06:13:07;;;;;;;23.33;14.38;;;8.50;99.90;;;;;;4993707;28;20048;-72
2021/05/23 06:15:33;;;;;;;27.20;13.77;;;8.40;99.90;;;;;;5024905;28;20306;-73
2021/05/23 06:18:00;;;;;;;19.35;12.60;;;8.40;99.90;;;;;;5042044;28;20071;-73
2021/05/23 06:20:27;;;;;;;19.65;11.95;;;8.40;99.90;;;;;;5029709;28;20057;-74
2021/05/23 06:22:54;;;;;;;24.35;14.98;;;8.40;99.90;;;;;;5020468;28;20296;-73
2021/05/23 06:25:21;;;;;;;24.58;14.82;;;8.40;99.90;;;;;;4987375;28;20053;-73
2021/05/23 06:27:48;;;;;;;24.05;13.35;;;8.40;99.90;;;;;;5020250;28;20144;-71
2021/05/23 06:30:15;;;;;;;15.95;11.05;;;8.40;99.90;;;;;;5014184;28;20042;-70
2021/05/23 06:32:44;;;;;;;21.60;15.02;;;8.40;99.90;;;;;;5008652;28;20069;-71
2021/05/23 06:35:14;;;;;;;22.48;14.23;;;8.40;99.90;;;;;;5026667;28;20388;-74
2021/05/23 06:37:41;;;;;;;21.23;14.45;;;8.40;99.90;;;;;;5011000;28;20057;-71
2021/05/23 06:40:08;;;;;;;18.00;12.50;;;8.40;99.90;;;;;;5010919;28;20141;-72
2021/05/23 06:42:35;;;;;;;17.50;11.68;;;8.40;99.90;;;;;;5039514;28;20144;-71
2021/05/23 06:45:03;;;;;;;14.35;10.45;;;8.40;99.90;;;;;;5036543;28;20229;-72
2021/05/23 06:47:30;;;;;;;19.38;13.07;;;8.50;99.90;;;;;;4976249;28;20094;-71
2021/05/23 06:49:58;;;;;;;16.30;10.38;;;8.70;99.90;;;;;;5020109;28;20056;-71
2021/05/23 06:52:26;;;;;;;14.35;10.98;;;8.70;99.90;;;;;;5016074;28;20112;-72
2021/05/23 06:54:53;;;;;;;18.27;12.70;;;8.70;99.90;;;;;;4988920;28;20489;-71
2021/05/23 06:57:20;;;;;;;17.10;11.77;;;8.80;99.90;;;;;;5008162;28;20221;-71
2021/05/23 06:59:46;;;;;;;12.68;9.07;;;8.90;99.90;;;;;;5023855;28;20540;-72
2021/05/23 07:02:14;;;;;;;17.13;12.73;;;9.00;99.90;;;;;;5007118;28;20285;-72
2021/05/23 07:04:40;;;;;;;12.95;10.52;;;9.10;99.90;;;;;;5023507;28;20153;-71
2021/05/23 07:07:07;;;;;;;16.80;11.57;;;9.10;99.90;;;;;;4991275;28;20049;-74
2021/05/23 07:09:34;;;;;;;16.55;12.02;;;9.00;99.90;;;;;;5024323;28;20046;-71
2021/05/23 07:12:01;;;;;;;12.57;10.05;;;9.00;99.90;;;;;;5008709;28;20526;-73
2021/05/23 07:14:28;;;;;;;15.90;10.93;;;9.10;99.90;;;;;;5005096;28;20041;-71
2021/05/23 07:16:55;;;;;;;17.40;12.48;;;9.10;99.90;;;;;;5029123;28;20041;-73
2021/05/23 07:19:22;;;;;;;17.35;13.73;;;9.00;99.90;;;;;;5009313;28;20055;-73
2021/05/23 07:21:48;;;;;;;19.85;15.20;;;9.00;99.90;;;;;;5043677;28;20502;-73
2021/05/23 07:24:15;;;;;;;22.45;16.25;;;9.00;99.90;;;;;;5012490;28;20620;-72
2021/05/23 07:26:43;;;;;;;27.38;17.45;;;8.90;99.90;;;;;;5025983;28;20064;-73
2021/05/23 07:29:10;;;;;;;27.25;17.65;;;8.90;99.90;;;;;;5028496;28;20128;-71
2021/05/23 07:31:37;;;;;;;26.70;18.08;;;8.80;99.90;;;;;;4981793;28;20349;-72
2021/05/23 07:34:04;;;;;;;26.58;18.52;;;8.90;99.90;;;;;;4999522;28;20048;-72
2021/05/23 07:36:31;;;;;;;26.88;16.33;;;8.90;99.90;;;;;;5023159;28;20148;-72
2021/05/23 07:38:57;;;;;;;28.20;17.75;;;9.00;99.90;;;;;;5023186;28;20049;-71
2021/05/23 07:41:25;;;;;;;27.48;18.90;;;9.00;99.90;;;;;;5022740;28;20049;-71
2021/05/23 07:43:52;;;;;;;32.47;21.73;;;9.00;99.90;;;;;;5006059;28;20415;-71
2021/05/23 07:46:19;;;;;;;37.42;21.10;;;9.00;99.90;;;;;;5004984;28;20057;-71
2021/05/23 07:48:46;;;;;;;31.63;21.13;;;9.00;99.90;;;;;;5002119;28;20418;-71
2021/05/23 07:51:13;;;;;;;30.80;19.33;;;9.00;99.90;;;;;;4987933;28;20068;-71
2021/05/23 07:53:39;;;;;;;32.72;20.75;;;8.90;99.90;;;;;;5007798;28;20058;-71
2021/05/23 07:56:06;;;;;;;41.17;23.13;;;8.80;99.90;;;;;;4988392;28;20576;-71
2021/05/23 07:58:33;;;;;;;35.65;21.55;;;8.90;99.90;;;;;;5004956;28;20053;-71
2021/05/23 08:01:00;;;;;;;28.40;18.13;;;8.80;99.90;;;;;;4987457;28;20056;-73
2021/05/23 08:03:27;;;;;;;28.23;18.05;;;8.80;99.90;;;;;;5004065;28;20058;-73
2021/05/23 08:05:55;;;;;;;33.22;20.58;;;8.80;99.90;;;;;;5004833;28;20431;-72
2021/05/23 08:08:22;;;;;;;32.25;18.63;;;8.80;99.90;;;;;;4988911;28;20046;-72
2021/05/23 08:10:49;;;;;;;33.97;20.42;;;8.80;99.90;;;;;;4952453;28;20052;-73
2021/05/23 08:13:16;;;;;;;30.15;18.38;;;8.80;99.90;;;;;;5000005;28;20147;-72
2021/05/23 08:15:44;;;;;;;35.88;19.42;;;8.80;99.90;;;;;;4998694;28;20042;-72
2021/05/23 08:18:11;;;;;;;35.17;20.92;;;8.80;99.90;;;;;;5003040;28;20085;-73
2021/05/23 08:20:38;;;;;;;32.13;20.75;;;8.90;99.90;;;;;;4977522;28;20073;-73
2021/05/23 08:23:05;;;;;;;31.95;20.92;;;8.90;99.90;;;;;;4991863;28;20077;-73
2021/05/23 08:25:32;;;;;;;30.77;19.52;;;8.90;99.90;;;;;;4970061;28;20053;-72
2021/05/23 08:27:59;;;;;;;45.45;30.02;;;9.00;99.90;;;;;;5002846;28;20054;-72
2021/05/23 08:30:26;;;;;;;35.95;21.90;;;9.00;99.90;;;;;;4969615;28;20520;-72
2021/05/23 08:32:52;;;;;;;35.80;23.70;;;9.00;99.90;;;;;;5000887;28;20193;-72
2021/05/23 08:35:23;;;;;;;43.42;27.58;;;9.00;99.90;;;;;;5002512;28;20058;-73
2021/05/23 08:37:50;;;;;;;31.38;20.33;;;9.00;99.90;;;;;;4985108;28;20180;-71
2021/05/23 08:40:17;;;;;;;33.20;22.73;;;9.00;99.90;;;;;;4986051;28;20088;-72
2021/05/23 08:42:45;;;;;;;31.58;23.38;;;9.00;99.90;;;;;;4985075;28;20050;-73
2021/05/23 08:45:13;;;;;;;32.53;21.88;;;9.10;99.90;;;;;;4999192;28;20658;-73
2021/05/23 08:47:44;;;;;;;26.58;18.05;;;9.20;99.90;;;;;;5004387;28;20034;-73
2021/05/23 08:50:15;;;;;;;23.73;15.35;;;9.30;99.90;;;;;;5004936;28;20053;-74
2021/05/23 08:52:42;;;;;;;22.45;15.93;;;9.40;99.90;;;;;;5004216;28;20119;-73
2021/05/23 08:55:09;;;;;;;9.75;5.95;;;9.50;99.90;;;;;;4987852;28;20449;-72
2021/05/23 08:57:37;;;;;;;6.55;4.60;;;9.40;99.90;;;;;;5007875;28;20046;-73
2021/05/23 09:00:05;;;;;;;5.75;4.57;;;9.30;99.90;;;;;;5006125;28;20254;-72
2021/05/23 09:02:32;;;;;;;6.40;5.07;;;9.30;99.90;;;;;;4991668;28;20075;-72
2021/05/23 09:04:59;;;;;;;8.82;5.82;;;9.40;99.90;;;;;;4985602;28;20590;-72
2021/05/23 09:07:26;;;;;;;8.43;5.50;;;9.30;99.90;;;;;;4969974;28;20050;-73
2021/05/23 09:09:53;;;;;;;5.13;4.65;;;9.20;99.90;;;;;;4976254;28;20424;-73
2021/05/23 09:12:20;;;;;;;5.50;4.95;;;9.20;99.90;;;;;;4972956;28;20077;-72
2021/05/23 09:14:49;;;;;;;9.45;5.28;;;9.20;99.90;;;;;;5015320;28;20280;-72
2021/05/23 09:17:22;;;;;;;7.95;6.00;;;9.40;99.90;;;;;;5021478;28;20491;-72
2021/05/23 09:19:51;;;;;;;13.15;5.65;;;9.50;99.90;;;;;;5003170;28;20053;-73
2021/05/23 09:22:20;;;;;;;6.05;5.10;;;9.60;99.90;;;;;;5002399;28;20141;-73
2021/05/23 09:24:54;;;;;;;7.38;6.07;;;9.50;99.90;;;;;;5004270;28;20045;-73
2021/05/23 09:27:33;;;;;;;8.25;7.45;;;9.50;99.90;;;;;;4985556;28;20463;-72
2021/05/23 09:30:23;;;;;;;7.95;6.68;;;9.50;99.90;;;;;;5016057;28;20049;-73
2021/05/23 09:32:51;;;;;;;9.98;7.80;;;9.40;99.90;;;;;;5012660;28;20049;-72
2021/05/23 09:35:19;;;;;;;10.75;7.72;;;9.30;99.90;;;;;;5004908;28;20520;-73
2021/05/23 09:37:58;;;;;;;9.82;8.88;;;9.30;99.90;;;;;;5022452;28;20164;-71
2021/05/23 09:40:28;;;;;;;13.10;8.98;;;9.40;99.90;;;;;;5004921;28;20080;-73
2021/05/23 09:42:56;;;;;;;11.75;8.50;;;9.40;99.90;;;;;;4973134;28;20037;-73
2021/05/23 09:45:36;;;;;;;8.68;7.13;;;9.40;99.90;;;;;;5007749;28;20056;-73
2021/05/23 09:48:05;;;;;;;10.45;7.80;;;9.50;99.90;;;;;;5021068;28;20140;-72
2021/05/23 09:50:40;;;;;;;7.45;6.75;;;9.60;99.90;;;;;;5024049;28;20053;-73
2021/05/23 09:53:23;;;;;;;9.35;7.53;;;9.60;99.90;;;;;;5003973;28;20493;-73
2021/05/23 09:55:54;;;;;;;7.32;6.30;;;9.70;99.90;;;;;;4988417;28;20162;-72
2021/05/23 09:58:41;;;;;;;10.30;6.30;;;9.70;99.90;;;;;;5003548;28;20057;-73
2021/05/23 10:01:11;;;;;;;11.90;6.80;;;9.70;99.90;;;;;;5018873;28;20590;-72
2021/05/23 10:03:40;;;;;;;10.55;7.95;;;9.70;99.90;;;;;;5017254;28;20621;-72
2021/05/23 10:06:08;;;;;;;9.35;7.50;;;9.80;99.90;;;;;;5011404;28;20061;-72
2021/05/23 10:08:36;;;;;;;9.48;8.57;;;9.80;99.90;;;;;;5021133;28;20144;-72
2021/05/23 10:11:03;;;;;;;10.18;7.75;;;10.00;99.90;;;;;;4987656;28;20303;-71
2021/05/23 10:13:30;;;;;;;14.05;10.50;;;10.10;99.90;;;;;;5005805;28;20049;-71
2021/05/23 10:15:56;;;;;;;14.45;9.27;;;10.40;99.90;;;;;;5011755;28;20593;-72
2021/05/23 10:18:28;;;;;;;12.68;9.77;;;10.80;99.90;;;;;;4988288;28;20057;-72
2021/05/23 11:07:17;;;;;;;8.32;5.25;;;12.90;99.90;;;;;;4978494;28;20033;-72
2021/05/23 11:09:43;;;;;;;5.68;5.22;;;13.20;99.90;;;;;;4987157;28;20046;-73
2021/05/23 11:12:13;;;;;;;6.32;5.72;;;13.00;99.90;;;;;;5001015;28;20410;-73
2021/05/23 11:14:41;;;;;;;9.30;5.53;;;12.80;99.90;;;;;;5021404;28;20057;-73
2021/05/23 11:17:10;;;;;;;6.13;5.78;;;12.60;99.90;;;;;;5024824;28;20629;-73
2021/05/23 11:19:37;;;;;;;6.40;5.95;;;12.30;99.90;;;;;;5006226;28;20336;-73
2021/05/23 11:22:04;;;;;;;7.53;6.80;;;12.10;99.90;;;;;;5020117;28;20141;-74
2021/05/23 11:24:35;;;;;;;7.03;6.38;;;12.00;99.90;;;;;;5004625;28;20273;-73
2021/05/23 11:27:16;;;;;;;7.88;7.07;;;12.00;99.90;;;;;;5003765;28;20131;-72
2021/05/23 11:29:48;;;;;;;6.65;6.05;;;12.60;99.90;;;;;;5014276;28;20057;-72
2021/05/23 11:32:16;;;;;;;6.70;6.05;;;12.90;99.90;;;;;;5040541;28;20128;-72
2021/05/23 11:34:43;;;;;;;7.82;6.65;;;12.90;99.90;;;;;;5000404;28;20136;-72
2021/05/23 11:37:10;;;;;;;6.78;6.20;;;13.00;99.90;;;;;;5022407;28;20065;-72
2021/05/23 11:39:37;;;;;;;6.90;6.20;;;13.10;99.90;;;;;;4997249;28;20060;-72
2021/05/23 11:42:06;;;;;;;7.90;7.15;;;13.00;99.90;;;;;;4989683;28;20251;-72
2021/05/23 11:44:44;;;;;;;7.30;6.60;;;12.80;99.90;;;;;;5003769;28;20177;-72
2021/05/23 11:47:10;;;;;;;7.70;7.18;;;12.80;99.90;;;;;;5022270;28;20049;-74
2021/05/23 11:49:44;;;;;;;7.82;7.20;;;12.90;99.90;;;;;;5022468;28;20520;-72
2021/05/23 11:52:12;;;;;;;8.53;7.73;;;13.50;99.90;;;;;;4998156;28;20083;-72
2021/05/23 11:54:38;;;;;;;8.65;7.97;;;13.50;99.90;;;;;;5024296;28;20177;-72
2021/05/23 11:57:06;;;;;;;8.70;7.90;;;13.30;99.90;;;;;;5023034;28;20088;-71
2021/05/23 11:59:33;;;;;;;9.65;8.98;;;13.30;99.90;;;;;;5007208;28;20081;-71
2021/05/23 12:06:16;;;;;;;9.23;8.55;;;13.90;99.90;;;;;;4995568;28;20037;-73
2021/05/23 12:08:43;;;;;;;10.75;9.63;;;14.20;99.90;;;;;;5002045;28;20080;-72
2021/05/23 12:11:10;;;;;;;8.93;8.23;;;14.30;99.90;;;;;;5008835;28;20095;-73
2021/05/23 12:13:45;;;;;;;9.30;8.55;;;14.50;99.90;;;;;;5016052;28;20367;-72
2021/05/23 12:16:19;;;;;;;9.30;8.85;;;14.10;99.90;;;;;;4973848;28;20455;-72
2021/05/23 12:18:54;;;;;;;9.35;8.85;;;13.70;99.90;;;;;;4989231;28;20144;-73
2021/05/23 12:21:26;;;;;;;8.07;7.55;;;14.00;99.90;;;;;;5005506;28;20048;-73
2021/05/23 12:23:55;;;;;;;8.73;8.30;;;14.20;99.90;;;;;;5002356;28;20160;-73
2021/05/23 12:26:24;;;;;;;8.90;8.32;;;14.20;99.90;;;;;;5010051;28;20057;-73
2021/05/23 12:28:52;;;;;;;9.43;8.63;;;14.50;99.90;;;;;;5004327;28;20080;-73
2021/05/23 12:31:22;;;;;;;8.23;7.53;;;14.60;99.90;;;;;;5016185;28;20056;-73
2021/05/23 12:33:57;;;;;;;9.07;8.40;;;14.40;99.90;;;;;;5037230;28;20557;-72
2021/05/23 12:36:26;;;;;;;7.30;7.00;;;14.30;99.90;;;;;;5033175;28;20075;-72
2021/05/23 12:39:21;;;;;;;8.60;7.75;;;14.50;99.90;;;;;;5004063;28;20049;-74
2021/05/23 12:41:51;;;;;;;7.90;7.35;;;14.50;99.90;;;;;;5022503;28;20099;-73
2021/05/23 12:44:20;;;;;;;8.38;7.78;;;14.20;99.90;;;;;;4998080;28;20050;-74
2021/05/23 12:46:48;;;;;;;8.32;7.90;;;14.00;99.90;;;;;;5020512;28;20041;-71
2021/05/23 12:49:16;;;;;;;9.30;8.70;;;14.10;99.90;;;;;;5004777;28;20060;-72
2021/05/23 12:51:44;;;;;;;9.18;8.63;;;14.70;99.90;;;;;;5004231;28;20664;-72
2021/05/23 12:54:26;;;;;;;10.50;9.57;;;14.80;99.90;;;;;;4994568;28;20045;-72
2021/05/23 12:56:53;;;;;;;9.93;9.23;;;14.80;99.90;;;;;;5000949;28;20041;-73
2021/05/23 12:59:20;;;;;;;11.88;10.23;;;15.00;99.90;;;;;;5023595;28;20129;-73
2021/05/23 13:01:49;;;;;;;8.15;7.35;;;15.10;99.90;;;;;;5019323;28;20523;-73
2021/05/23 13:04:23;;;;;;;9.90;9.10;;;14.90;99.90;;;;;;5014969;28;20084;-73
2021/05/23 13:06:56;;;;;;;8.48;8.07;;;15.20;99.90;;;;;;5017687;28;20049;-73
2021/05/23 13:09:40;;;;;;;7.88;7.25;;;15.10;99.90;;;;;;5024742;28;20441;-74
2021/05/23 13:12:16;;;;;;;8.30;7.65;;;14.60;99.90;;;;;;5021693;28;20257;-74
2021/05/23 13:14:54;;;;;;;8.15;7.35;;;14.30;99.90;;;;;;5007070;28;20145;-73
2021/05/23 13:17:28;;;;;;;7.93;7.22;;;14.20;99.90;;;;;;5029523;28;20200;-73
2021/05/23 13:20:19;;;;;;;7.63;7.05;;;13.90;99.90;;;;;;5021074;28;20133;-73
2021/05/23 13:22:48;;;;;;;8.98;8.27;;;13.80;99.90;;;;;;4976306;28;20038;-73
2021/05/23 13:25:15;;;;;;;8.23;7.60;;;13.90;99.90;;;;;;4977876;28;20051;-73
2021/05/23 13:27:52;;;;;;;11.25;7.65;;;14.00;99.90;;;;;;5010092;28;20053;-72
2021/05/23 13:30:19;;;;;;;9.23;8.52;;;14.00;99.90;;;;;;4988083;28;20053;-72
2021/05/23 13:32:48;;;;;;;9.25;8.52;;;14.00;99.90;;;;;;5039318;28;20059;-73
2021/05/23 13:35:15;;;;;;;9.10;8.43;;;14.00;99.90;;;;;;5002952;28;20599;-72
2021/05/23 13:37:43;;;;;;;8.20;7.70;;;14.10;99.90;;;;;;5009893;28;20041;-72
2021/05/23 13:40:10;;;;;;;8.80;8.30;;;14.60;99.90;;;;;;5007011;28;20051;-74
2021/05/23 13:42:37;;;;;;;9.02;7.70;;;14.60;99.90;;;;;;5005195;28;20053;-72
2021/05/23 13:45:07;;;;;;;7.72;7.03;;;15.00;99.90;;;;;;5033320;28;20056;-73